sensor_id;sensor_type;location;lat;lon;timestamp;pressure;altitude;pressure_sealevel;temperature;humidity
51986;BME280;38002;53.296;6.600;2024-03-06T00:01:06;102201.78;;;3.83;100.00
51986;BME280;38002;53.296;6.600;2024-03-06T00:06:07;102212.44;;;3.85;100.00
51986;BME280;38002;53.296;6.600;2024-03-06T00:11:07;102209.84;;;3.83;100.00
51986;BME280;38002;53.296;6.600;2024-03-06T00:16:08;102217.81;;;3.85;100.00
51986;BME280;38002;53.296;6.600;2024-03-06T00:21:08;102219.56;;;3.86;100.00
51986;BME280;38002;53.296;6.600;2024-03-06T00:26:09;102221.28;;;3.87;100.00
51986;BME280;38002;53.296;6.600;2024-03-06T00:31:10;102223.97;;;3.87;100.00
51986;BME280;38002;53.296;6.600;2024-03-06T00:36:10;102234.81;;;3.85;100.00
51986;BME280;38002;53.296;6.600;2024-03-06T00:41:11;102226.13;;;3.80;100.00
51986;BME280;38002;53.296;6.600;2024-03-06T00:46:11;102234.13;;;3.82;100.00
51986;BME280;38002;53.296;6.600;2024-03-06T00:51:12;102236.03;;;3.80;100.00
51986;BME280;38002;53.296;6.600;2024-03-06T00:56:12;102238.81;;;3.78;100.00
51986;BME280;38002;53.296;6.600;2024-03-06T01:01:13;102243.31;;;3.78;100.00
51986;BME280;38002;53.296;6.600;2024-03-06T01:06:13;102248.72;;;3.78;100.00
51986;BME280;38002;53.296;6.600;2024-03-06T01:11:14;102241.59;;;3.77;100.00
51986;BME280;38002;53.296;6.600;2024-03-06T01:16:17;102241.59;;;3.77;100.00
51986;BME280;38002;53.296;6.600;2024-03-06T01:21:18;102247.06;;;3.75;100.00
51986;BME280;38002;53.296;6.600;2024-03-06T01:26:18;102253.41;;;3.74;100.00
51986;BME280;38002;53.296;6.600;2024-03-06T01:31:19;102254.34;;;3.73;100.00
51986;BME280;38002;53.296;6.600;2024-03-06T01:36:19;102265.03;;;3.75;100.00
51986;BME280;38002;53.296;6.600;2024-03-06T01:41:19;102260.59;;;3.74;100.00
51986;BME280;38002;53.296;6.600;2024-03-06T01:46:20;102255.28;;;3.72;100.00
51986;BME280;38002;53.296;6.600;2024-03-06T01:51:20;102260.78;;;3.71;100.00
51986;BME280;38002;53.296;6.600;2024-03-06T01:56:21;102271.44;;;3.72;100.00
51986;BME280;38002;53.296;6.600;2024-03-06T02:01:22;102267.84;;;3.72;100.00
51986;BME280;38002;53.296;6.600;2024-03-06T02:06:22;102276.81;;;3.72;100.00
51986;BME280;38002;53.296;6.600;2024-03-06T02:11:23;102275.94;;;3.72;100.00
51986;BME280;38002;53.296;6.600;2024-03-06T02:16:24;102279.59;;;3.71;100.00
51986;BME280;38002;53.296;6.600;2024-03-06T02:21:25;102284.97;;;3.71;100.00
51986;BME280;38002;53.296;6.600;2024-03-06T02:26:26;102290.34;;;3.71;100.00
51986;BME280;38002;53.296;6.600;2024-03-06T02:31:26;102288.63;;;3.70;100.00
51986;BME280;38002;53.296;6.600;2024-03-06T02:36:27;102286.78;;;3.70;100.00
51986;BME280;38002;53.296;6.600;2024-03-06T02:41:27;102284.00;;;3.72;100.00
51986;BME280;38002;53.296;6.600;2024-03-06T02:46:28;102284.97;;;3.71;100.00
51986;BME280;38002;53.296;6.600;2024-03-06T02:51:29;102282.19;;;3.72;100.00
51986;BME280;38002;53.296;6.600;2024-03-06T02:56:29;102285.81;;;3.71;100.00
51986;BME280;38002;53.296;6.600;2024-03-06T03:01:30;102280.44;;;3.71;100.00
51986;BME280;38002;53.296;6.600;2024-03-06T03:06:30;102285.94;;;3.70;100.00
51986;BME280;38002;53.296;6.600;2024-03-06T03:11:31;102287.75;;;3.69;100.00
51986;BME280;38002;53.296;6.600;2024-03-06T03:16:32;102295.75;;;3.71;100.00
51986;BME280;38002;53.296;6.600;2024-03-06T03:21:32;102293.06;;;3.71;100.00
51986;BME280;38002;53.296;6.600;2024-03-06T03:26:33;102292.94;;;3.72;100.00
51986;BME280;38002;53.296;6.600;2024-03-06T03:31:33;102305.63;;;3.70;100.00
51986;BME280;38002;53.296;6.600;2024-03-06T03:36:34;102313.69;;;3.70;100.00
51986;BME280;38002;53.296;6.600;2024-03-06T03:41:35;102316.38;;;3.70;100.00
51986;BME280;38002;53.296;6.600;2024-03-06T03:46:35;102313.75;;;3.69;100.00
51986;BME280;38002;53.296;6.600;2024-03-06T03:51:39;102322.63;;;3.71;100.00
51986;BME280;38002;53.296;6.600;2024-03-06T03:56:41;102322.72;;;3.69;100.00
51986;BME280;38002;53.296;6.600;2024-03-06T04:01:41;102328.03;;;3.71;100.00
51986;BME280;38002;53.296;6.600;2024-03-06T04:06:44;102328.03;;;3.71;100.00
51986;BME280;38002;53.296;6.600;2024-03-06T04:11:45;102328.09;;;3.69;100.00
51986;BME280;38002;53.296;6.600;2024-03-06T04:16:46;102335.28;;;3.69;100.00
51986;BME280;38002;53.296;6.600;2024-03-06T04:21:46;102327.16;;;3.70;100.00
51986;BME280;38002;53.296;6.600;2024-03-06T04:26:47;102329.84;;;3.70;100.00
51986;BME280;38002;53.296;6.600;2024-03-06T04:31:47;102346.84;;;3.71;100.00
51986;BME280;38002;53.296;6.600;2024-03-06T04:36:48;102345.88;;;3.72;100.00
51986;BME280;38002;53.296;6.600;2024-03-06T04:41:51;102339.53;;;3.73;100.00
51986;BME280;38002;53.296;6.600;2024-03-06T04:46:51;102350.31;;;3.73;100.00
51986;BME280;38002;53.296;6.600;2024-03-06T04:51:52;102345.81;;;3.73;100.00
51986;BME280;38002;53.296;6.600;2024-03-06T04:56:52;102348.56;;;3.72;100.00
51986;BME280;38002;53.296;6.600;2024-03-06T05:01:53;102362.81;;;3.74;100.00
51986;BME280;38002;53.296;6.600;2024-03-06T05:06:53;102364.56;;;3.75;100.00
51986;BME280;38002;53.296;6.600;2024-03-06T05:11:54;102368.03;;;3.77;100.00
51986;BME280;38002;53.296;6.600;2024-03-06T05:16:54;102383.22;;;3.78;100.00
51986;BME280;38002;53.296;6.600;2024-03-06T05:21:54;102390.34;;;3.79;100.00
51986;BME280;38002;53.296;6.600;2024-03-06T05:26:55;102380.53;;;3.78;100.00
51986;BME280;38002;53.296;6.600;2024-03-06T05:31:55;102384.97;;;3.79;100.00
51986;BME280;38002;53.296;6.600;2024-03-06T05:36:56;102392.06;;;3.80;100.00
51986;BME280;38002;53.296;6.600;2024-03-06T05:42:00;102400.06;;;3.81;100.00
51986;BME280;38002;53.296;6.600;2024-03-06T05:47:03;102408.06;;;3.83;100.00
51986;BME280;38002;53.296;6.600;2024-03-06T05:52:03;102400.06;;;3.81;100.00
51986;BME280;38002;53.296;6.600;2024-03-06T05:57:04;102425.97;;;3.84;100.00
51986;BME280;38002;53.296;6.600;2024-03-06T06:02:04;102436.72;;;3.84;100.00
51986;BME280;38002;53.296;6.600;2024-03-06T06:07:05;102446.50;;;3.85;100.00
51986;BME280;38002;53.296;6.600;2024-03-06T06:12:05;102447.31;;;3.87;100.00
51986;BME280;38002;53.296;6.600;2024-03-06T06:17:06;102443.75;;;3.86;100.00
51986;BME280;38002;53.296;6.600;2024-03-06T06:22:06;102451.81;;;3.86;100.00
51986;BME280;38002;53.296;6.600;2024-03-06T06:27:07;102456.25;;;3.87;100.00
51986;BME280;38002;53.296;6.600;2024-03-06T06:32:08;102459.72;;;3.89;100.00
51986;BME280;38002;53.296;6.600;2024-03-06T06:37:09;102477.63;;;3.90;100.00
51986;BME280;38002;53.296;6.600;2024-03-06T06:42:09;102472.22;;;3.90;100.00
51986;BME280;38002;53.296;6.600;2024-03-06T06:47:11;102486.56;;;3.91;100.00
51986;BME280;38002;53.296;6.600;2024-03-06T06:52:11;102492.72;;;3.93;100.00
51986;BME280;38002;53.296;6.600;2024-03-06T06:57:12;102498.03;;;3.94;100.00
51986;BME280;38002;53.296;6.600;2024-03-06T07:02:12;102497.97;;;3.96;100.00
51986;BME280;38002;53.296;6.600;2024-03-06T07:07:13;102500.47;;;3.99;100.00
51986;BME280;38002;53.296;6.600;2024-03-06T07:12:14;102508.56;;;3.99;100.00
51986;BME280;38002;53.296;6.600;2024-03-06T07:17:14;102513.78;;;4.02;100.00
51986;BME280;38002;53.296;6.600;2024-03-06T07:22:15;102519.97;;;4.04;100.00
51986;BME280;38002;53.296;6.600;2024-03-06T07:27:15;102524.31;;;4.06;100.00
51986;BME280;38002;53.296;6.600;2024-03-06T07:32:15;102534.13;;;4.07;100.00
51986;BME280;38002;53.296;6.600;2024-03-06T07:37:16;102539.34;;;4.10;100.00
51986;BME280;38002;53.296;6.600;2024-03-06T07:42:16;102539.09;;;4.15;100.00
51986;BME280;38002;53.296;6.600;2024-03-06T07:47:18;102548.69;;;4.21;100.00
51986;BME280;38002;53.296;6.600;2024-03-06T07:52:18;102549.50;;;4.23;100.00
51986;BME280;38002;53.296;6.600;2024-03-06T07:57:19;102552.91;;;4.26;100.00
51986;BME280;38002;53.296;6.600;2024-03-06T08:02:19;102552.56;;;4.32;100.00
51986;BME280;38002;53.296;6.600;2024-03-06T08:07:20;102554.13;;;4.36;100.00
51986;BME280;38002;53.296;6.600;2024-03-06T08:12:20;102567.47;;;4.39;100.00
51986;BME280;38002;53.296;6.600;2024-03-06T08:17:20;102572.59;;;4.44;100.00
51986;BME280;38002;53.296;6.600;2024-03-06T08:22:21;102584.09;;;4.47;100.00
51986;BME280;38002;53.296;6.600;2024-03-06T08:27:21;102584.72;;;4.52;100.00
51986;BME280;38002;53.296;6.600;2024-03-06T08:32:22;102585.31;;;4.57;100.00
51986;BME280;38002;53.296;6.600;2024-03-06T08:37:22;102596.72;;;4.63;100.00
51986;BME280;38002;53.296;6.600;2024-03-06T08:42:23;102594.84;;;4.65;100.00
51986;BME280;38002;53.296;6.600;2024-03-06T08:47:24;102603.56;;;4.70;100.00
51986;BME280;38002;53.296;6.600;2024-03-06T08:52:24;102602.25;;;4.77;100.00
51986;BME280;38002;53.296;6.600;2024-03-06T08:57:24;102609.03;;;4.84;100.00
51986;BME280;38002;53.296;6.600;2024-03-06T09:02:28;102617.59;;;4.92;100.00
51986;BME280;38002;53.296;6.600;2024-03-06T09:07:28;102615.44;;;4.98;100.00
51986;BME280;38002;53.296;6.600;2024-03-06T09:12:29;102614.56;;;4.98;100.00
51986;BME280;38002;53.296;6.600;2024-03-06T09:17:29;102634.00;;;5.05;100.00
51986;BME280;38002;53.296;6.600;2024-03-06T09:22:30;102639.28;;;5.06;100.00
51986;BME280;38002;53.296;6.600;2024-03-06T09:27:30;102646.19;;;5.12;100.00
51986;BME280;38002;53.296;6.600;2024-03-06T09:32:31;102644.81;;;5.20;100.00
51986;BME280;38002;53.296;6.600;2024-03-06T09:37:31;102654.22;;;5.29;100.00
51986;BME280;38002;53.296;6.600;2024-03-06T09:42:32;102659.09;;;5.38;100.00
51986;BME280;38002;53.296;6.600;2024-03-06T09:47:35;102662.94;;;5.49;100.00
51986;BME280;38002;53.296;6.600;2024-03-06T09:52:36;102658.94;;;5.57;100.00
51986;BME280;38002;53.296;6.600;2024-03-06T09:57:37;102674.63;;;5.66;100.00
51986;BME280;38002;53.296;6.600;2024-03-06T10:03:04;102683.50;;;5.83;100.00
51986;BME280;38002;53.296;6.600;2024-03-06T10:08:09;102694.44;;;5.98;100.00
51986;BME280;38002;53.296;6.600;2024-03-06T10:13:09;102689.47;;;6.06;100.00
51986;BME280;38002;53.296;6.600;2024-03-06T10:23:12;102698.41;;;6.22;100.00
51986;BME280;38002;53.296;6.600;2024-03-06T10:28:12;102702.25;;;6.33;100.00
51986;BME280;38002;53.296;6.600;2024-03-06T10:33:14;102701.09;;;6.37;100.00
51986;BME280;38002;53.296;6.600;2024-03-06T10:38:14;102714.06;;;6.47;100.00
51986;BME280;38002;53.296;6.600;2024-03-06T10:43:15;102709.09;;;6.55;100.00
51986;BME280;38002;53.296;6.600;2024-03-06T10:48:18;102710.38;;;6.63;100.00
51986;BME280;38002;53.296;6.600;2024-03-06T10:53:21;102717.81;;;6.74;100.00
51986;BME280;38002;53.296;6.600;2024-03-06T10:58:23;102714.75;;;6.80;100.00
51986;BME280;38002;53.296;6.600;2024-03-06T11:03:25;102727.72;;;6.89;100.00
51986;BME280;38002;53.296;6.600;2024-03-06T11:08:26;102730.91;;;6.96;100.00
51986;BME280;38002;53.296;6.600;2024-03-06T11:13:30;102727.94;;;7.00;100.00
51986;BME280;38002;53.296;6.600;2024-03-06T11:23:34;102730.28;;;7.06;100.00
51986;BME280;38002;53.296;6.600;2024-03-06T11:28:36;102731.53;;;7.15;100.00
51986;BME280;38002;53.296;6.600;2024-03-06T11:33:39;102734.44;;;7.26;100.00
51986;BME280;38002;53.296;6.600;2024-03-06T11:38:41;102730.97;;;7.38;100.00
51986;BME280;38002;53.296;6.600;2024-03-06T11:43:45;102733.91;;;7.63;100.00
51986;BME280;38002;53.296;6.600;2024-03-06T11:48:53;102739.00;;;7.82;100.00
51986;BME280;38002;53.296;6.600;2024-03-06T11:53:54;102738.50;;;7.90;100.00
51986;BME280;38002;53.296;6.600;2024-03-06T11:58:55;102742.84;;;7.92;100.00
51986;BME280;38002;53.296;6.600;2024-03-06T12:03:55;102743.25;;;7.86;100.00
51986;BME280;38002;53.296;6.600;2024-03-06T12:08:56;102744.91;;;7.89;100.00
51986;BME280;38002;53.296;6.600;2024-03-06T12:13:57;102757.06;;;7.96;100.00
51986;BME280;38002;53.296;6.600;2024-03-06T12:18:58;102749.81;;;7.96;100.00
51986;BME280;38002;53.296;6.600;2024-03-06T12:24:05;102750.56;;;7.98;100.00
51986;BME280;38002;53.296;6.600;2024-03-06T12:29:07;102745.72;;;8.03;100.00
51986;BME280;38002;53.296;6.600;2024-03-06T12:34:13;102746.41;;;8.07;100.00
51986;BME280;38002;53.296;6.600;2024-03-06T12:39:15;102754.22;;;8.11;100.00
51986;BME280;38002;53.296;6.600;2024-03-06T12:44:22;102744.25;;;8.12;100.00
51986;BME280;38002;53.296;6.600;2024-03-06T12:49:22;102755.97;;;8.12;100.00
51986;BME280;38002;53.296;6.600;2024-03-06T12:54:23;102748.50;;;8.16;100.00
51986;BME280;38002;53.296;6.600;2024-03-06T12:59:23;102745.31;;;8.24;100.00
51986;BME280;38002;53.296;6.600;2024-03-06T13:04:24;102752.28;;;8.28;100.00
51986;BME280;38002;53.296;6.600;2024-03-06T13:09:24;102747.72;;;8.28;100.00
51986;BME280;38002;53.296;6.600;2024-03-06T13:14:25;102751.88;;;8.34;100.00
51986;BME280;38002;53.296;6.600;2024-03-06T13:19:25;102752.66;;;8.36;100.00
51986;BME280;38002;53.296;6.600;2024-03-06T13:24:26;102761.91;;;8.46;100.00
51986;BME280;38002;53.296;6.600;2024-03-06T13:29:26;102760.34;;;8.56;100.00
51986;BME280;38002;53.296;6.600;2024-03-06T13:34:27;102762.44;;;8.65;100.00
51986;BME280;38002;53.296;6.600;2024-03-06T13:39:27;102755.13;;;8.80;100.00
51986;BME280;38002;53.296;6.600;2024-03-06T13:44:28;102752.22;;;8.95;100.00
51986;BME280;38002;53.296;6.600;2024-03-06T13:49:39;102753.19;;;9.07;100.00
51986;BME280;38002;53.296;6.600;2024-03-06T13:54:41;102764.31;;;9.29;100.00
51986;BME280;38002;53.296;6.600;2024-03-06T13:59:42;102761.72;;;9.53;100.00
51986;BME280;38002;53.296;6.600;2024-03-06T14:04:42;102750.91;;;9.89;100.00
51986;BME280;38002;53.296;6.600;2024-03-06T14:09:43;102748.88;;;10.29;100.00
51986;BME280;38002;53.296;6.600;2024-03-06T14:14:43;102753.94;;;10.46;100.00
51986;BME280;38002;53.296;6.600;2024-03-06T14:19:45;102759.56;;;10.56;100.00
51986;BME280;38002;53.296;6.600;2024-03-06T14:24:45;102766.72;;;10.57;100.00
51986;BME280;38002;53.296;6.600;2024-03-06T14:29:46;102753.31;;;10.43;99.53
51986;BME280;38002;53.296;6.600;2024-03-06T14:34:46;102750.97;;;10.50;100.00
51986;BME280;38002;53.296;6.600;2024-03-06T14:39:47;102763.88;;;10.59;100.00
51986;BME280;38002;53.296;6.600;2024-03-06T14:44:47;102770.97;;;10.61;100.00
51986;BME280;38002;53.296;6.600;2024-03-06T14:49:48;102777.38;;;10.60;100.00
51986;BME280;38002;53.296;6.600;2024-03-06T14:54:49;102772.09;;;10.46;100.00
51986;BME280;38002;53.296;6.600;2024-03-06T14:59:49;102775.50;;;10.37;100.00
51986;BME280;38002;53.296;6.600;2024-03-06T15:04:50;102775.97;;;10.31;100.00
51986;BME280;38002;53.296;6.600;2024-03-06T15:09:51;102782.09;;;10.09;100.00
51986;BME280;38002;53.296;6.600;2024-03-06T15:14:51;102801.97;;;9.97;100.00
51986;BME280;38002;53.296;6.600;2024-03-06T15:19:54;102799.50;;;9.81;100.00
51986;BME280;38002;53.296;6.600;2024-03-06T15:24:54;102801.69;;;9.64;100.00
51986;BME280;38002;53.296;6.600;2024-03-06T15:29:55;102803.66;;;9.49;100.00
51986;BME280;38002;53.296;6.600;2024-03-06T15:34:55;102817.97;;;9.38;100.00
51986;BME280;38002;53.296;6.600;2024-03-06T15:39:58;102817.06;;;9.25;100.00
51986;BME280;38002;53.296;6.600;2024-03-06T15:44:58;102812.50;;;9.13;100.00
51986;BME280;38002;53.296;6.600;2024-03-06T15:49:59;102815.94;;;9.02;100.00
51986;BME280;38002;53.296;6.600;2024-03-06T15:54:59;102818.72;;;8.88;100.00
51986;BME280;38002;53.296;6.600;2024-03-06T16:00:00;102823.03;;;8.78;100.00
51986;BME280;38002;53.296;6.600;2024-03-06T16:05:01;102826.25;;;8.71;100.00
51986;BME280;38002;53.296;6.600;2024-03-06T16:10:02;102820.56;;;8.61;100.00
51986;BME280;38002;53.296;6.600;2024-03-06T16:15:03;102828.03;;;8.57;100.00
51986;BME280;38002;53.296;6.600;2024-03-06T16:20:04;102828.34;;;8.53;100.00
51986;BME280;38002;53.296;6.600;2024-03-06T16:25:06;102839.56;;;8.47;100.00
51986;BME280;38002;53.296;6.600;2024-03-06T16:30:07;102843.56;;;8.41;100.00
51986;BME280;38002;53.296;6.600;2024-03-06T16:35:08;102846.28;;;8.41;100.00
51986;BME280;38002;53.296;6.600;2024-03-06T16:40:10;102844.63;;;8.39;100.00
51986;BME280;38002;53.296;6.600;2024-03-06T16:45:11;102857.19;;;8.26;100.00
51986;BME280;38002;53.296;6.600;2024-03-06T16:50:12;102860.19;;;8.21;100.00
51986;BME280;38002;53.296;6.600;2024-03-06T16:55:12;102867.84;;;8.14;100.00
51986;BME280;38002;53.296;6.600;2024-03-06T17:00:14;102870.94;;;8.08;100.00
51986;BME280;38002;53.296;6.600;2024-03-06T17:05:15;102875.00;;;8.01;100.00
51986;BME280;38002;53.296;6.600;2024-03-06T17:10:15;102880.03;;;7.93;100.00
51986;BME280;38002;53.296;6.600;2024-03-06T17:15:16;102876.84;;;7.87;100.00
51986;BME280;38002;53.296;6.600;2024-03-06T17:20:16;102882.66;;;7.81;100.00
51986;BME280;38002;53.296;6.600;2024-03-06T17:25:17;102886.69;;;7.73;100.00
51986;BME280;38002;53.296;6.600;2024-03-06T17:30:18;102887.91;;;7.68;100.00
51986;BME280;38002;53.296;6.600;2024-03-06T17:35:19;102901.66;;;7.65;100.00
51986;BME280;38002;53.296;6.600;2024-03-06T17:40:19;102894.59;;;7.62;100.00
51986;BME280;38002;53.296;6.600;2024-03-06T17:45:20;102905.59;;;7.59;100.00
51986;BME280;38002;53.296;6.600;2024-03-06T17:50:20;102911.13;;;7.58;100.00
51986;BME280;38002;53.296;6.600;2024-03-06T17:55:21;102909.38;;;7.57;100.00
51986;BME280;38002;53.296;6.600;2024-03-06T18:00:21;102918.44;;;7.56;100.00
51986;BME280;38002;53.296;6.600;2024-03-06T18:05:22;102924.84;;;7.55;100.00
51986;BME280;38002;53.296;6.600;2024-03-06T18:10:23;102925.00;;;7.52;100.00
51986;BME280;38002;53.296;6.600;2024-03-06T18:15:23;102937.59;;;7.53;100.00
51986;BME280;38002;53.296;6.600;2024-03-06T18:20:24;102937.78;;;7.50;100.00
51986;BME280;38002;53.296;6.600;2024-03-06T18:25:26;102943.09;;;7.51;100.00
51986;BME280;38002;53.296;6.600;2024-03-06T18:30:28;102945.78;;;7.51;100.00
51986;BME280;38002;53.296;6.600;2024-03-06T18:35:29;102945.09;;;7.48;100.00
51986;BME280;38002;53.296;6.600;2024-03-06T18:40:30;102951.66;;;7.44;100.00
51986;BME280;38002;53.296;6.600;2024-03-06T18:45:30;102950.91;;;7.42;100.00
51986;BME280;38002;53.296;6.600;2024-03-06T18:50:31;102954.56;;;7.41;100.00
51986;BME280;38002;53.296;6.600;2024-03-06T18:55:31;102967.16;;;7.42;100.00
51986;BME280;38002;53.296;6.600;2024-03-06T19:00:32;102968.09;;;7.41;100.00
51986;BME280;38002;53.296;6.600;2024-03-06T19:05:34;102969.13;;;7.38;100.00
51986;BME280;38002;53.296;6.600;2024-03-06T19:10:34;102971.84;;;7.38;100.00
51986;BME280;38002;53.296;6.600;2024-03-06T19:15:35;102976.41;;;7.38;100.00
51986;BME280;38002;53.296;6.600;2024-03-06T19:20:35;102975.59;;;7.36;100.00
51986;BME280;38002;53.296;6.600;2024-03-06T19:25:38;102984.78;;;7.33;100.00
51986;BME280;38002;53.296;6.600;2024-03-06T19:30:38;102985.75;;;7.32;100.00
51986;BME280;38002;53.296;6.600;2024-03-06T19:35:39;102985.06;;;7.28;100.00
51986;BME280;38002;53.296;6.600;2024-03-06T19:40:42;102990.63;;;7.25;100.00
51986;BME280;38002;53.296;6.600;2024-03-06T19:45:43;102978.25;;;7.21;100.00
51986;BME280;38002;53.296;6.600;2024-03-06T19:50:43;102980.25;;;7.18;100.00
51986;BME280;38002;53.296;6.600;2024-03-06T19:55:46;102982.28;;;7.14;100.00
51986;BME280;38002;53.296;6.600;2024-03-06T20:00:48;102982.53;;;7.10;100.00
51986;BME280;38002;53.296;6.600;2024-03-06T20:05:48;102996.25;;;7.07;100.00
51986;BME280;38002;53.296;6.600;2024-03-06T20:10:49;102997.25;;;7.04;100.00
51986;BME280;38002;53.296;6.600;2024-03-06T20:15:50;102994.81;;;7.00;100.00
51986;BME280;38002;53.296;6.600;2024-03-06T20:20:51;102994.38;;;6.92;100.00
51986;BME280;38002;53.296;6.600;2024-03-06T20:25:52;103008.97;;;6.89;100.00
51986;BME280;38002;53.296;6.600;2024-03-06T20:30:53;103006.41;;;6.86;100.00
51986;BME280;38002;53.296;6.600;2024-03-06T20:35:53;103001.19;;;6.83;100.00
51986;BME280;38002;53.296;6.600;2024-03-06T20:40:54;102995.09;;;6.79;100.00
51986;BME280;38002;53.296;6.600;2024-03-06T20:45:54;103004.06;;;6.80;100.00
51986;BME280;38002;53.296;6.600;2024-03-06T20:50:54;103003.38;;;6.76;100.00
51986;BME280;38002;53.296;6.600;2024-03-06T20:55:55;103005.28;;;6.74;100.00
51986;BME280;38002;53.296;6.600;2024-03-06T21:00:56;103003.69;;;6.70;100.00
51986;BME280;38002;53.296;6.600;2024-03-06T21:05:56;103002.94;;;6.68;100.00
51986;BME280;38002;53.296;6.600;2024-03-06T21:10:57;103010.22;;;6.66;100.00
51986;BME280;38002;53.296;6.600;2024-03-06T21:15:59;103007.72;;;6.63;100.00
51986;BME280;38002;53.296;6.600;2024-03-06T21:21:00;103005.06;;;6.62;100.00
51986;BME280;38002;53.296;6.600;2024-03-06T21:26:01;103009.72;;;6.60;100.00
51986;BME280;38002;53.296;6.600;2024-03-06T21:31:02;103011.53;;;6.59;100.00
51986;BME280;38002;53.296;6.600;2024-03-06T21:36:04;102998.34;;;6.53;100.00
51986;BME280;38002;53.296;6.600;2024-03-06T21:41:04;103002.09;;;6.51;100.00
51986;BME280;38002;53.296;6.600;2024-03-06T21:46:05;103005.81;;;6.48;100.00
51986;BME280;38002;53.296;6.600;2024-03-06T21:51:05;102998.84;;;6.44;100.00
51986;BME280;38002;53.296;6.600;2024-03-06T21:56:09;103008.16;;;6.38;100.00
51986;BME280;38002;53.296;6.600;2024-03-06T22:01:12;103022.72;;;6.36;100.00
51986;BME280;38002;53.296;6.600;2024-03-06T22:06:13;103020.25;;;6.31;100.00
51986;BME280;38002;53.296;6.600;2024-03-06T22:11:13;103019.72;;;6.25;100.00
51986;BME280;38002;53.296;6.600;2024-03-06T22:16:14;103024.31;;;6.23;100.00
51986;BME280;38002;53.296;6.600;2024-03-06T22:21:15;103023.59;;;6.19;100.00
51986;BME280;38002;53.296;6.600;2024-03-06T22:26:15;103021.06;;;6.16;100.00
51986;BME280;38002;53.296;6.600;2024-03-06T22:31:16;103025.75;;;6.13;100.00
51986;BME280;38002;53.296;6.600;2024-03-06T22:36:17;103024.09;;;6.10;100.00
51986;BME280;38002;53.296;6.600;2024-03-06T22:41:18;103027.97;;;6.05;100.00
51986;BME280;38002;53.296;6.600;2024-03-06T22:46:21;103032.66;;;6.01;100.00
51986;BME280;38002;53.296;6.600;2024-03-06T22:51:21;103032.19;;;5.93;100.00
51986;BME280;38002;53.296;6.600;2024-03-06T22:56:22;103029.78;;;5.87;100.00
51986;BME280;38002;53.296;6.600;2024-03-06T23:01:22;103041.78;;;5.81;100.00
51986;BME280;38002;53.296;6.600;2024-03-06T23:06:23;103041.06;;;5.78;100.00
51986;BME280;38002;53.296;6.600;2024-03-06T23:11:23;103038.59;;;5.73;100.00
51986;BME280;38002;53.296;6.600;2024-03-06T23:16:24;103050.56;;;5.68;100.00
51986;BME280;38002;53.296;6.600;2024-03-06T23:21:24;103048.09;;;5.63;100.00
51986;BME280;38002;53.296;6.600;2024-03-06T23:26:25;103045.56;;;5.60;100.00
51986;BME280;38002;53.296;6.600;2024-03-06T23:31:26;103050.31;;;5.55;100.00
51986;BME280;38002;53.296;6.600;2024-03-06T23:36:27;103051.47;;;5.49;100.00
51986;BME280;38002;53.296;6.600;2024-03-06T23:41:27;103050.91;;;5.43;100.00
51986;BME280;38002;53.296;6.600;2024-03-06T23:46:30;103052.84;;;5.39;100.00
51986;BME280;38002;53.296;6.600;2024-03-06T23:51:31;103055.66;;;5.38;100.00
51986;BME280;38002;53.296;6.600;2024-03-06T23:56:33;103063.91;;;5.35;100.00
